Terminal Aerodrome Forecast
Issued by NWS

Home | Current Version | Previous Version | Text Only | Print | Product List | Glossary On
Versions: 1 2 3 4 5 6 7 8 9 10 11 12 13 14 15 16
000
FTUS45 KCYS 181700
TAFRWL
TAF
KRWL 181726Z 1818/1918 22029G40KT P6SM FEW080 BKN200
     FM190100 26018G30KT P6SM BKN080
     FM190500 27008KT P6SM OVC100=

USA.gov is the U.S. government's official web portal to all federal, state and local government web resources and services.